sensor_id;sensor_type;location;lat;lon;timestamp;P1;durP1;ratioP1;P2;durP2;ratioP2
36061;SDS011;22123;52.412;20.970;2023-06-14T00:00:51;1.05;;;0.68;;
36061;SDS011;22123;52.412;20.970;2023-06-14T00:03:17;1.20;;;1.10;;
36061;SDS011;22123;52.412;20.970;2023-06-14T00:05:43;3.17;;;1.40;;
36061;SDS011;22123;52.412;20.970;2023-06-14T00:08:09;2.35;;;1.27;;
36061;SDS011;22123;52.412;20.970;2023-06-14T00:10:35;6.53;;;0.55;;
36061;SDS011;22123;52.412;20.970;2023-06-14T00:13:02;1.20;;;1.10;;
36061;SDS011;22123;52.412;20.970;2023-06-14T00:15:28;1.17;;;0.65;;
36061;SDS011;22123;52.412;20.970;2023-06-14T00:17:54;2.22;;;1.13;;
36061;SDS011;22123;52.412;20.970;2023-06-14T00:20:20;1.73;;;1.60;;
36061;SDS011;22123;52.412;20.970;2023-06-14T00:22:46;2.08;;;1.42;;
36061;SDS011;22123;52.412;20.970;2023-06-14T00:25:12;1.85;;;1.02;;
36061;SDS011;22123;52.412;20.970;2023-06-14T00:27:38;1.58;;;1.02;;
36061;SDS011;22123;52.412;20.970;2023-06-14T00:30:04;0.82;;;0.82;;
36061;SDS011;22123;52.412;20.970;2023-06-14T00:34:56;2.22;;;1.10;;
36061;SDS011;22123;52.412;20.970;2023-06-14T00:37:22;1.10;;;1.00;;
36061;SDS011;22123;52.412;20.970;2023-06-14T00:39:47;2.25;;;1.38;;
36061;SDS011;22123;52.412;20.970;2023-06-14T00:42:23;1.88;;;1.15;;
36061;SDS011;22123;52.412;20.970;2023-06-14T00:44:49;0.60;;;0.60;;
36061;SDS011;22123;52.412;20.970;2023-06-14T00:47:15;2.38;;;1.13;;
36061;SDS011;22123;52.412;20.970;2023-06-14T00:49:41;1.70;;;1.58;;
36061;SDS011;22123;52.412;20.970;2023-06-14T00:52:07;1.05;;;0.90;;
36061;SDS011;22123;52.412;20.970;2023-06-14T00:54:33;2.03;;;1.10;;
36061;SDS011;22123;52.412;20.970;2023-06-14T00:56:59;3.38;;;1.40;;
36061;SDS011;22123;52.412;20.970;2023-06-14T00:59:25;1.13;;;0.75;;
36061;SDS011;22123;52.412;20.970;2023-06-14T01:01:51;1.13;;;0.80;;
36061;SDS011;22123;52.412;20.970;2023-06-14T01:04:17;1.23;;;1.02;;
36061;SDS011;22123;52.412;20.970;2023-06-14T01:06:45;1.25;;;1.15;;
36061;SDS011;22123;52.412;20.970;2023-06-14T01:12:04;1.70;;;1.45;;
36061;SDS011;22123;52.412;20.970;2023-06-14T01:14:39;3.38;;;2.03;;
36061;SDS011;22123;52.412;20.970;2023-06-14T01:17:07;3.05;;;1.42;;
36061;SDS011;22123;52.412;20.970;2023-06-14T01:19:34;3.03;;;1.48;;
36061;SDS011;22123;52.412;20.970;2023-06-14T01:22:00;1.38;;;1.17;;
36061;SDS011;22123;52.412;20.970;2023-06-14T01:24:26;3.47;;;1.10;;
36061;SDS011;22123;52.412;20.970;2023-06-14T01:26:53;1.73;;;0.80;;
36061;SDS011;22123;52.412;20.970;2023-06-14T01:29:21;4.82;;;1.35;;
36061;SDS011;22123;52.412;20.970;2023-06-14T01:31:49;2.72;;;0.82;;
36061;SDS011;22123;52.412;20.970;2023-06-14T01:34:15;2.42;;;0.90;;
36061;SDS011;22123;52.412;20.970;2023-06-14T01:36:42;2.80;;;1.00;;
36061;SDS011;22123;52.412;20.970;2023-06-14T01:39:13;1.00;;;0.80;;
36061;SDS011;22123;52.412;20.970;2023-06-14T01:41:40;2.55;;;1.63;;
36061;SDS011;22123;52.412;20.970;2023-06-14T01:44:08;2.70;;;1.30;;
36061;SDS011;22123;52.412;20.970;2023-06-14T01:46:35;2.22;;;1.13;;
36061;SDS011;22123;52.412;20.970;2023-06-14T01:49:02;0.55;;;0.45;;
36061;SDS011;22123;52.412;20.970;2023-06-14T01:51:28;0.68;;;0.57;;
36061;SDS011;22123;52.412;20.970;2023-06-14T01:53:53;1.77;;;1.67;;
36061;SDS011;22123;52.412;20.970;2023-06-14T01:56:19;4.13;;;1.70;;
36061;SDS011;22123;52.412;20.970;2023-06-14T01:58:45;3.60;;;2.17;;
36061;SDS011;22123;52.412;20.970;2023-06-14T02:01:11;2.40;;;1.73;;
36061;SDS011;22123;52.412;20.970;2023-06-14T02:03:37;2.67;;;1.75;;
36061;SDS011;22123;52.412;20.970;2023-06-14T02:06:03;2.72;;;1.80;;
36061;SDS011;22123;52.412;20.970;2023-06-14T02:08:29;3.38;;;1.40;;
36061;SDS011;22123;52.412;20.970;2023-06-14T02:10:55;2.28;;;1.33;;
36061;SDS011;22123;52.412;20.970;2023-06-14T02:13:20;1.33;;;1.23;;
36061;SDS011;22123;52.412;20.970;2023-06-14T02:15:47;2.13;;;1.17;;
36061;SDS011;22123;52.412;20.970;2023-06-14T02:18:12;1.92;;;1.58;;
36061;SDS011;22123;52.412;20.970;2023-06-14T02:20:38;2.15;;;1.75;;
36061;SDS011;22123;52.412;20.970;2023-06-14T02:23:04;1.42;;;1.33;;
36061;SDS011;22123;52.412;20.970;2023-06-14T02:25:30;1.80;;;1.42;;
36061;SDS011;22123;52.412;20.970;2023-06-14T02:27:56;3.33;;;1.67;;
36061;SDS011;22123;52.412;20.970;2023-06-14T02:30:22;2.83;;;1.67;;
36061;SDS011;22123;52.412;20.970;2023-06-14T02:32:48;2.25;;;1.58;;
36061;SDS011;22123;52.412;20.970;2023-06-14T02:35:14;3.40;;;1.40;;
36061;SDS011;22123;52.412;20.970;2023-06-14T02:37:40;3.35;;;2.35;;
36061;SDS011;22123;52.412;20.970;2023-06-14T02:40:06;1.33;;;1.23;;
36061;SDS011;22123;52.412;20.970;2023-06-14T02:42:32;2.72;;;2.35;;
36061;SDS011;22123;52.412;20.970;2023-06-14T02:44:58;2.58;;;1.50;;
36061;SDS011;22123;52.412;20.970;2023-06-14T02:47:24;1.98;;;1.48;;
36061;SDS011;22123;52.412;20.970;2023-06-14T02:49:50;1.95;;;1.70;;
36061;SDS011;22123;52.412;20.970;2023-06-14T02:52:15;3.17;;;1.73;;
36061;SDS011;22123;52.412;20.970;2023-06-14T02:54:41;1.08;;;1.05;;
36061;SDS011;22123;52.412;20.970;2023-06-14T02:57:07;2.00;;;1.63;;
36061;SDS011;22123;52.412;20.970;2023-06-14T02:59:33;2.28;;;1.65;;
36061;SDS011;22123;52.412;20.970;2023-06-14T03:02:00;1.10;;;0.93;;
36061;SDS011;22123;52.412;20.970;2023-06-14T03:04:25;1.60;;;1.13;;
36061;SDS011;22123;52.412;20.970;2023-06-14T03:06:52;2.08;;;1.27;;
36061;SDS011;22123;52.412;20.970;2023-06-14T03:09:18;1.73;;;1.63;;
36061;SDS011;22123;52.412;20.970;2023-06-14T03:11:44;1.15;;;0.80;;
36061;SDS011;22123;52.412;20.970;2023-06-14T03:14:09;1.23;;;1.05;;
36061;SDS011;22123;52.412;20.970;2023-06-14T03:16:35;2.35;;;1.60;;
36061;SDS011;22123;52.412;20.970;2023-06-14T03:19:01;2.28;;;1.55;;
36061;SDS011;22123;52.412;20.970;2023-06-14T03:21:27;6.47;;;1.80;;
36061;SDS011;22123;52.412;20.970;2023-06-14T03:23:53;1.63;;;1.27;;
36061;SDS011;22123;52.412;20.970;2023-06-14T03:26:19;2.95;;;2.13;;
36061;SDS011;22123;52.412;20.970;2023-06-14T03:28:45;1.50;;;0.82;;
36061;SDS011;22123;52.412;20.970;2023-06-14T03:31:12;2.45;;;1.95;;
36061;SDS011;22123;52.412;20.970;2023-06-14T03:33:38;1.63;;;1.52;;
36061;SDS011;22123;52.412;20.970;2023-06-14T03:36:04;1.67;;;1.58;;
36061;SDS011;22123;52.412;20.970;2023-06-14T03:38:31;1.70;;;1.17;;
36061;SDS011;22123;52.412;20.970;2023-06-14T03:40:56;1.58;;;0.85;;
36061;SDS011;22123;52.412;20.970;2023-06-14T03:43:22;4.18;;;1.10;;
36061;SDS011;22123;52.412;20.970;2023-06-14T03:45:48;1.65;;;1.33;;
36061;SDS011;22123;52.412;20.970;2023-06-14T03:48:14;2.47;;;1.00;;
36061;SDS011;22123;52.412;20.970;2023-06-14T03:50:40;2.53;;;1.83;;
36061;SDS011;22123;52.412;20.970;2023-06-14T03:53:06;1.50;;;1.40;;
36061;SDS011;22123;52.412;20.970;2023-06-14T03:55:32;1.65;;;1.27;;
36061;SDS011;22123;52.412;20.970;2023-06-14T03:57:58;4.22;;;1.98;;
36061;SDS011;22123;52.412;20.970;2023-06-14T04:00:24;1.70;;;1.40;;
36061;SDS011;22123;52.412;20.970;2023-06-14T04:02:50;2.65;;;1.58;;
36061;SDS011;22123;52.412;20.970;2023-06-14T04:05:17;3.08;;;1.13;;
36061;SDS011;22123;52.412;20.970;2023-06-14T04:07:43;0.90;;;0.90;;
36061;SDS011;22123;52.412;20.970;2023-06-14T04:10:08;6.07;;;1.50;;
36061;SDS011;22123;52.412;20.970;2023-06-14T04:12:35;2.55;;;1.25;;
36061;SDS011;22123;52.412;20.970;2023-06-14T04:15:00;1.35;;;1.17;;
36061;SDS011;22123;52.412;20.970;2023-06-14T04:17:26;1.52;;;1.42;;
36061;SDS011;22123;52.412;20.970;2023-06-14T04:19:52;1.73;;;1.20;;
36061;SDS011;22123;52.412;20.970;2023-06-14T04:22:18;1.42;;;1.30;;
36061;SDS011;22123;52.412;20.970;2023-06-14T04:24:44;2.30;;;1.77;;
36061;SDS011;22123;52.412;20.970;2023-06-14T04:27:10;2.88;;;1.67;;
36061;SDS011;22123;52.412;20.970;2023-06-14T04:29:36;2.28;;;1.38;;
36061;SDS011;22123;52.412;20.970;2023-06-14T04:32:01;2.75;;;1.80;;
36061;SDS011;22123;52.412;20.970;2023-06-14T04:34:27;2.95;;;1.58;;
36061;SDS011;22123;52.412;20.970;2023-06-14T04:36:53;1.80;;;1.67;;
36061;SDS011;22123;52.412;20.970;2023-06-14T04:39:20;1.75;;;1.40;;
36061;SDS011;22123;52.412;20.970;2023-06-14T04:44:11;1.75;;;1.15;;
36061;SDS011;22123;52.412;20.970;2023-06-14T04:46:37;4.07;;;2.63;;
36061;SDS011;22123;52.412;20.970;2023-06-14T04:49:03;4.47;;;3.63;;
36061;SDS011;22123;52.412;20.970;2023-06-14T04:51:29;7.97;;;3.13;;
36061;SDS011;22123;52.412;20.970;2023-06-14T04:53:58;7.30;;;3.30;;
36061;SDS011;22123;52.412;20.970;2023-06-14T04:56:24;4.13;;;2.67;;
36061;SDS011;22123;52.412;20.970;2023-06-14T05:01:16;6.38;;;4.47;;
36061;SDS011;22123;52.412;20.970;2023-06-14T05:03:41;4.03;;;2.80;;
36061;SDS011;22123;52.412;20.970;2023-06-14T05:06:08;4.38;;;3.00;;
36061;SDS011;22123;52.412;20.970;2023-06-14T05:08:34;2.72;;;2.45;;
36061;SDS011;22123;52.412;20.970;2023-06-14T05:11:00;2.85;;;2.42;;
36061;SDS011;22123;52.412;20.970;2023-06-14T05:13:25;2.40;;;2.05;;
36061;SDS011;22123;52.412;20.970;2023-06-14T05:15:51;3.60;;;1.55;;
36061;SDS011;22123;52.412;20.970;2023-06-14T05:18:17;1.45;;;1.35;;
36061;SDS011;22123;52.412;20.970;2023-06-14T05:20:43;1.65;;;1.05;;
36061;SDS011;22123;52.412;20.970;2023-06-14T05:23:09;2.08;;;1.88;;
36061;SDS011;22123;52.412;20.970;2023-06-14T05:25:35;2.58;;;1.02;;
36061;SDS011;22123;52.412;20.970;2023-06-14T05:28:01;1.98;;;1.25;;
36061;SDS011;22123;52.412;20.970;2023-06-14T05:30:26;2.63;;;1.98;;
36061;SDS011;22123;52.412;20.970;2023-06-14T05:32:52;2.20;;;1.48;;
36061;SDS011;22123;52.412;20.970;2023-06-14T05:35:18;5.40;;;1.73;;
36061;SDS011;22123;52.412;20.970;2023-06-14T05:37:44;2.13;;;1.42;;
36061;SDS011;22123;52.412;20.970;2023-06-14T05:40:10;4.13;;;1.40;;
36061;SDS011;22123;52.412;20.970;2023-06-14T05:45:02;3.47;;;2.40;;
36061;SDS011;22123;52.412;20.970;2023-06-14T05:47:28;3.22;;;2.28;;
36061;SDS011;22123;52.412;20.970;2023-06-14T05:49:54;1.63;;;1.45;;
36061;SDS011;22123;52.412;20.970;2023-06-14T05:52:19;1.80;;;1.70;;
36061;SDS011;22123;52.412;20.970;2023-06-14T05:54:45;2.05;;;1.88;;
36061;SDS011;22123;52.412;20.970;2023-06-14T05:57:11;2.53;;;1.98;;
36061;SDS011;22123;52.412;20.970;2023-06-14T05:59:37;3.83;;;2.75;;
36061;SDS011;22123;52.412;20.970;2023-06-14T06:02:03;3.33;;;2.75;;
36061;SDS011;22123;52.412;20.970;2023-06-14T06:04:29;2.42;;;1.83;;
36061;SDS011;22123;52.412;20.970;2023-06-14T06:06:55;3.13;;;2.00;;
36061;SDS011;22123;52.412;20.970;2023-06-14T06:09:21;5.03;;;2.05;;
36061;SDS011;22123;52.412;20.970;2023-06-14T06:11:47;3.53;;;2.15;;
36061;SDS011;22123;52.412;20.970;2023-06-14T06:14:13;2.42;;;2.13;;
36061;SDS011;22123;52.412;20.970;2023-06-14T06:16:38;3.60;;;2.75;;
36061;SDS011;22123;52.412;20.970;2023-06-14T06:19:04;2.83;;;2.03;;
36061;SDS011;22123;52.412;20.970;2023-06-14T06:21:30;2.92;;;2.45;;
36061;SDS011;22123;52.412;20.970;2023-06-14T06:23:56;3.38;;;1.75;;
36061;SDS011;22123;52.412;20.970;2023-06-14T06:26:22;1.73;;;1.63;;
36061;SDS011;22123;52.412;20.970;2023-06-14T06:28:48;3.10;;;1.88;;
36061;SDS011;22123;52.412;20.970;2023-06-14T06:33:39;3.20;;;1.80;;
36061;SDS011;22123;52.412;20.970;2023-06-14T06:38:31;3.58;;;1.90;;
36061;SDS011;22123;52.412;20.970;2023-06-14T06:43:22;3.10;;;1.88;;
36061;SDS011;22123;52.412;20.970;2023-06-14T06:48:14;9.00;;;1.73;;
36061;SDS011;22123;52.412;20.970;2023-06-14T06:53:05;2.08;;;1.40;;
36061;SDS011;22123;52.412;20.970;2023-06-14T06:57:57;2.35;;;1.58;;
36061;SDS011;22123;52.412;20.970;2023-06-14T07:02:49;2.13;;;2.03;;
36061;SDS011;22123;52.412;20.970;2023-06-14T07:07:40;5.07;;;1.90;;
36061;SDS011;22123;52.412;20.970;2023-06-14T07:12:32;1.77;;;1.23;;
36061;SDS011;22123;52.412;20.970;2023-06-14T07:17:23;1.67;;;1.35;;
36061;SDS011;22123;52.412;20.970;2023-06-14T07:22:15;2.00;;;1.48;;
36061;SDS011;22123;52.412;20.970;2023-06-14T07:27:06;2.25;;;2.05;;
36061;SDS011;22123;52.412;20.970;2023-06-14T07:31:58;2.97;;;2.58;;
36061;SDS011;22123;52.412;20.970;2023-06-14T07:36:49;2.20;;;2.03;;
36061;SDS011;22123;52.412;20.970;2023-06-14T07:41:41;3.03;;;1.45;;
36061;SDS011;22123;52.412;20.970;2023-06-14T07:46:32;2.85;;;2.58;;
36061;SDS011;22123;52.412;20.970;2023-06-14T07:51:24;1.45;;;1.35;;
36061;SDS011;22123;52.412;20.970;2023-06-14T07:56:15;2.17;;;1.63;;
36061;SDS011;22123;52.412;20.970;2023-06-14T08:01:07;1.83;;;1.25;;
36061;SDS011;22123;52.412;20.970;2023-06-14T08:03:34;1.73;;;1.35;;
36061;SDS011;22123;52.412;20.970;2023-06-14T08:08:25;2.42;;;1.55;;
36061;SDS011;22123;52.412;20.970;2023-06-14T08:10:51;3.00;;;2.13;;
36061;SDS011;22123;52.412;20.970;2023-06-14T08:15:43;3.25;;;1.48;;
36061;SDS011;22123;52.412;20.970;2023-06-14T08:18:09;2.35;;;1.58;;
36061;SDS011;22123;52.412;20.970;2023-06-14T08:20:35;2.45;;;1.65;;
36061;SDS011;22123;52.412;20.970;2023-06-14T08:25:27;3.38;;;1.50;;
36061;SDS011;22123;52.412;20.970;2023-06-14T08:27:53;2.15;;;1.92;;
36061;SDS011;22123;52.412;20.970;2023-06-14T08:32:45;2.58;;;1.38;;
36061;SDS011;22123;52.412;20.970;2023-06-14T08:35:11;1.98;;;1.25;;
36061;SDS011;22123;52.412;20.970;2023-06-14T08:40:06;1.83;;;1.23;;
36061;SDS011;22123;52.412;20.970;2023-06-14T08:42:43;1.85;;;1.55;;
36061;SDS011;22123;52.412;20.970;2023-06-14T08:45:10;1.55;;;1.05;;
36061;SDS011;22123;52.412;20.970;2023-06-14T08:50:01;1.50;;;1.38;;
36061;SDS011;22123;52.412;20.970;2023-06-14T08:52:28;2.15;;;1.63;;
36061;SDS011;22123;52.412;20.970;2023-06-14T08:54:59;1.80;;;1.08;;
36061;SDS011;22123;52.412;20.970;2023-06-14T08:57:25;2.90;;;1.67;;
36061;SDS011;22123;52.412;20.970;2023-06-14T08:59:53;5.75;;;1.23;;
36061;SDS011;22123;52.412;20.970;2023-06-14T09:02:19;3.22;;;1.73;;
36061;SDS011;22123;52.412;20.970;2023-06-14T09:07:11;1.67;;;0.63;;
36061;SDS011;22123;52.412;20.970;2023-06-14T09:09:40;1.35;;;1.10;;
36061;SDS011;22123;52.412;20.970;2023-06-14T09:12:07;2.60;;;1.80;;
36061;SDS011;22123;52.412;20.970;2023-06-14T09:14:35;1.13;;;1.02;;
36061;SDS011;22123;52.412;20.970;2023-06-14T09:19:27;1.55;;;1.08;;
36061;SDS011;22123;52.412;20.970;2023-06-14T09:21:54;1.52;;;1.10;;
36061;SDS011;22123;52.412;20.970;2023-06-14T09:26:48;1.55;;;1.42;;
36061;SDS011;22123;52.412;20.970;2023-06-14T09:29:16;4.50;;;1.88;;
36061;SDS011;22123;52.412;20.970;2023-06-14T09:31:45;1.85;;;1.50;;
36061;SDS011;22123;52.412;20.970;2023-06-14T09:34:12;3.63;;;2.28;;
36061;SDS011;22123;52.412;20.970;2023-06-14T09:39:04;3.45;;;2.05;;
36061;SDS011;22123;52.412;20.970;2023-06-14T09:41:34;2.83;;;1.92;;
36061;SDS011;22123;52.412;20.970;2023-06-14T09:44:04;2.90;;;1.90;;
36061;SDS011;22123;52.412;20.970;2023-06-14T09:46:34;2.15;;;1.48;;
36061;SDS011;22123;52.412;20.970;2023-06-14T09:49:02;2.13;;;1.92;;
36061;SDS011;22123;52.412;20.970;2023-06-14T09:51:29;3.75;;;2.05;;
36061;SDS011;22123;52.412;20.970;2023-06-14T09:53:58;2.72;;;2.22;;
36061;SDS011;22123;52.412;20.970;2023-06-14T09:56:28;4.43;;;1.40;;
36061;SDS011;22123;52.412;20.970;2023-06-14T09:58:56;3.50;;;1.63;;
36061;SDS011;22123;52.412;20.970;2023-06-14T10:01:26;1.85;;;1.40;;
36061;SDS011;22123;52.412;20.970;2023-06-14T10:04:01;1.67;;;1.10;;
36061;SDS011;22123;52.412;20.970;2023-06-14T10:06:29;1.63;;;0.73;;
36061;SDS011;22123;52.412;20.970;2023-06-14T10:08:56;3.40;;;0.88;;
36061;SDS011;22123;52.412;20.970;2023-06-14T10:11:24;0.90;;;0.68;;
36061;SDS011;22123;52.412;20.970;2023-06-14T10:13:51;1.92;;;1.52;;
36061;SDS011;22123;52.412;20.970;2023-06-14T10:16:20;1.95;;;0.88;;
36061;SDS011;22123;52.412;20.970;2023-06-14T10:18:59;0.63;;;0.63;;
36061;SDS011;22123;52.412;20.970;2023-06-14T10:24:09;1.30;;;1.13;;
36061;SDS011;22123;52.412;20.970;2023-06-14T10:26:49;2.05;;;1.00;;
36061;SDS011;22123;52.412;20.970;2023-06-14T10:29:17;2.22;;;1.15;;
36061;SDS011;22123;52.412;20.970;2023-06-14T10:31:44;1.83;;;1.08;;
36061;SDS011;22123;52.412;20.970;2023-06-14T10:37:00;0.95;;;0.85;;
36061;SDS011;22123;52.412;20.970;2023-06-14T10:39:25;1.77;;;1.05;;
36061;SDS011;22123;52.412;20.970;2023-06-14T10:46:47;0.73;;;0.65;;
36061;SDS011;22123;52.412;20.970;2023-06-14T10:49:20;1.77;;;1.15;;
36061;SDS011;22123;52.412;20.970;2023-06-14T10:52:02;2.22;;;1.35;;
36061;SDS011;22123;52.412;20.970;2023-06-14T10:54:28;0.50;;;0.50;;
36061;SDS011;22123;52.412;20.970;2023-06-14T10:59:20;1.70;;;1.05;;
36061;SDS011;22123;52.412;20.970;2023-06-14T11:04:49;1.58;;;1.48;;
36061;SDS011;22123;52.412;20.970;2023-06-14T11:07:24;1.42;;;1.10;;
36061;SDS011;22123;52.412;20.970;2023-06-14T11:13:00;0.82;;;0.82;;
36061;SDS011;22123;52.412;20.970;2023-06-14T11:15:33;1.48;;;0.90;;
36061;SDS011;22123;52.412;20.970;2023-06-14T11:18:00;2.03;;;1.20;;
36061;SDS011;22123;52.412;20.970;2023-06-14T11:20:29;3.05;;;1.20;;
36061;SDS011;22123;52.412;20.970;2023-06-14T11:22:56;2.47;;;1.90;;
36061;SDS011;22123;52.412;20.970;2023-06-14T11:25:22;6.22;;;1.60;;
36061;SDS011;22123;52.412;20.970;2023-06-14T11:27:49;1.38;;;0.93;;
36061;SDS011;22123;52.412;20.970;2023-06-14T11:30:15;1.23;;;0.90;;
36061;SDS011;22123;52.412;20.970;2023-06-14T11:32:42;1.15;;;1.05;;
36061;SDS011;22123;52.412;20.970;2023-06-14T11:35:08;1.10;;;1.05;;
36061;SDS011;22123;52.412;20.970;2023-06-14T11:37:34;1.13;;;0.90;;
36061;SDS011;22123;52.412;20.970;2023-06-14T11:40:01;3.17;;;0.90;;
36061;SDS011;22123;52.412;20.970;2023-06-14T11:42:28;2.20;;;1.25;;
36061;SDS011;22123;52.412;20.970;2023-06-14T11:44:54;1.05;;;0.75;;
36061;SDS011;22123;52.412;20.970;2023-06-14T11:47:20;2.63;;;1.02;;
36061;SDS011;22123;52.412;20.970;2023-06-14T11:49:46;0.80;;;0.80;;
36061;SDS011;22123;52.412;20.970;2023-06-14T11:52:13;1.30;;;1.20;;
36061;SDS011;22123;52.412;20.970;2023-06-14T11:54:39;0.85;;;0.75;;
36061;SDS011;22123;52.412;20.970;2023-06-14T11:57:05;2.42;;;1.25;;
36061;SDS011;22123;52.412;20.970;2023-06-14T11:59:32;1.20;;;1.20;;
36061;SDS011;22123;52.412;20.970;2023-06-14T12:01:58;2.78;;;1.30;;
36061;SDS011;22123;52.412;20.970;2023-06-14T12:04:24;1.35;;;1.23;;
36061;SDS011;22123;52.412;20.970;2023-06-14T12:06:50;1.52;;;1.40;;
36061;SDS011;22123;52.412;20.970;2023-06-14T12:09:15;2.30;;;0.90;;
36061;SDS011;22123;52.412;20.970;2023-06-14T12:11:41;1.95;;;1.67;;
36061;SDS011;22123;52.412;20.970;2023-06-14T12:14:08;2.97;;;1.15;;
36061;SDS011;22123;52.412;20.970;2023-06-14T12:16:35;1.42;;;1.33;;
36061;SDS011;22123;52.412;20.970;2023-06-14T12:19:13;2.03;;;1.10;;
36061;SDS011;22123;52.412;20.970;2023-06-14T12:21:41;1.02;;;0.93;;
36061;SDS011;22123;52.412;20.970;2023-06-14T12:24:07;1.88;;;1.20;;
36061;SDS011;22123;52.412;20.970;2023-06-14T12:26:37;1.27;;;0.90;;
36061;SDS011;22123;52.412;20.970;2023-06-14T12:29:04;2.25;;;1.02;;
36061;SDS011;22123;52.412;20.970;2023-06-14T12:31:31;2.05;;;0.82;;
36061;SDS011;22123;52.412;20.970;2023-06-14T12:33:57;1.95;;;1.20;;
36061;SDS011;22123;52.412;20.970;2023-06-14T12:36:22;1.35;;;1.10;;
36061;SDS011;22123;52.412;20.970;2023-06-14T12:38:48;1.48;;;1.33;;
36061;SDS011;22123;52.412;20.970;2023-06-14T12:41:14;1.17;;;0.70;;
36061;SDS011;22123;52.412;20.970;2023-06-14T12:43:41;1.70;;;0.95;;
36061;SDS011;22123;52.412;20.970;2023-06-14T12:46:07;1.73;;;1.05;;
36061;SDS011;22123;52.412;20.970;2023-06-14T12:48:33;1.00;;;0.90;;
36061;SDS011;22123;52.412;20.970;2023-06-14T12:50:59;1.10;;;1.00;;
36061;SDS011;22123;52.412;20.970;2023-06-14T12:53:24;2.45;;;2.17;;
36061;SDS011;22123;52.412;20.970;2023-06-14T12:55:50;1.05;;;0.95;;
36061;SDS011;22123;52.412;20.970;2023-06-14T12:58:16;0.77;;;0.77;;
36061;SDS011;22123;52.412;20.970;2023-06-14T13:00:42;1.73;;;1.13;;
36061;SDS011;22123;52.412;20.970;2023-06-14T13:03:09;1.00;;;0.82;;
36061;SDS011;22123;52.412;20.970;2023-06-14T13:05:35;0.80;;;0.80;;
36061;SDS011;22123;52.412;20.970;2023-06-14T13:08:01;1.00;;;0.93;;
36061;SDS011;22123;52.412;20.970;2023-06-14T13:10:27;4.40;;;1.38;;
36061;SDS011;22123;52.412;20.970;2023-06-14T13:12:53;0.98;;;0.82;;
36061;SDS011;22123;52.412;20.970;2023-06-14T13:15:19;2.22;;;0.90;;
36061;SDS011;22123;52.412;20.970;2023-06-14T13:17:45;1.75;;;1.02;;
36061;SDS011;22123;52.412;20.970;2023-06-14T13:20:11;1.00;;;0.88;;
36061;SDS011;22123;52.412;20.970;2023-06-14T13:22:37;3.65;;;1.27;;
36061;SDS011;22123;52.412;20.970;2023-06-14T13:25:03;1.92;;;1.42;;
36061;SDS011;22123;52.412;20.970;2023-06-14T13:27:29;1.25;;;1.17;;
36061;SDS011;22123;52.412;20.970;2023-06-14T13:29:55;1.10;;;1.00;;
36061;SDS011;22123;52.412;20.970;2023-06-14T13:32:21;1.17;;;0.80;;
36061;SDS011;22123;52.412;20.970;2023-06-14T13:34:47;2.20;;;1.00;;
36061;SDS011;22123;52.412;20.970;2023-06-14T13:37:14;1.02;;;0.90;;
36061;SDS011;22123;52.412;20.970;2023-06-14T13:39:40;1.58;;;1.30;;
36061;SDS011;22123;52.412;20.970;2023-06-14T13:42:06;1.08;;;1.00;;
36061;SDS011;22123;52.412;20.970;2023-06-14T13:44:32;1.35;;;1.05;;
36061;SDS011;22123;52.412;20.970;2023-06-14T13:46:57;2.33;;;1.00;;
36061;SDS011;22123;52.412;20.970;2023-06-14T13:49:23;1.30;;;1.08;;
36061;SDS011;22123;52.412;20.970;2023-06-14T13:51:49;1.65;;;1.05;;
36061;SDS011;22123;52.412;20.970;2023-06-14T13:54:17;1.02;;;0.85;;
36061;SDS011;22123;52.412;20.970;2023-06-14T13:56:45;1.95;;;1.00;;
36061;SDS011;22123;52.412;20.970;2023-06-14T13:59:11;0.82;;;0.75;;
36061;SDS011;22123;52.412;20.970;2023-06-14T14:01:37;2.13;;;0.77;;
36061;SDS011;22123;52.412;20.970;2023-06-14T14:04:03;0.98;;;0.70;;
36061;SDS011;22123;52.412;20.970;2023-06-14T14:06:29;0.88;;;0.80;;
36061;SDS011;22123;52.412;20.970;2023-06-14T14:08:55;1.55;;;0.98;;
36061;SDS011;22123;52.412;20.970;2023-06-14T14:11:21;1.08;;;0.77;;
36061;SDS011;22123;52.412;20.970;2023-06-14T14:13:47;2.17;;;1.10;;
36061;SDS011;22123;52.412;20.970;2023-06-14T14:18:38;1.08;;;0.93;;
36061;SDS011;22123;52.412;20.970;2023-06-14T14:21:04;0.77;;;0.77;;
36061;SDS011;22123;52.412;20.970;2023-06-14T14:23:30;1.33;;;0.80;;
36061;SDS011;22123;52.412;20.970;2023-06-14T14:25:56;1.75;;;1.13;;
36061;SDS011;22123;52.412;20.970;2023-06-14T14:28:22;1.05;;;0.70;;
36061;SDS011;22123;52.412;20.970;2023-06-14T14:30:48;1.35;;;0.73;;
36061;SDS011;22123;52.412;20.970;2023-06-14T14:33:14;1.17;;;0.82;;
36061;SDS011;22123;52.412;20.970;2023-06-14T14:35:41;0.93;;;0.70;;
36061;SDS011;22123;52.412;20.970;2023-06-14T14:38:08;1.02;;;0.82;;
36061;SDS011;22123;52.412;20.970;2023-06-14T14:40:34;2.03;;;0.90;;
36061;SDS011;22123;52.412;20.970;2023-06-14T14:43:00;0.82;;;0.60;;
36061;SDS011;22123;52.412;20.970;2023-06-14T14:45:25;0.60;;;0.60;;
36061;SDS011;22123;52.412;20.970;2023-06-14T14:47:51;0.98;;;0.88;;
36061;SDS011;22123;52.412;20.970;2023-06-14T14:50:17;1.27;;;0.60;;
36061;SDS011;22123;52.412;20.970;2023-06-14T14:52:43;0.98;;;0.90;;
36061;SDS011;22123;52.412;20.970;2023-06-14T14:55:09;0.80;;;0.57;;
36061;SDS011;22123;52.412;20.970;2023-06-14T14:57:35;2.72;;;0.60;;
36061;SDS011;22123;52.412;20.970;2023-06-14T15:00:01;1.27;;;0.85;;
36061;SDS011;22123;52.412;20.970;2023-06-14T15:02:27;0.55;;;0.55;;
36061;SDS011;22123;52.412;20.970;2023-06-14T15:07:18;1.13;;;1.02;;
36061;SDS011;22123;52.412;20.970;2023-06-14T15:09:44;1.45;;;0.80;;
36061;SDS011;22123;52.412;20.970;2023-06-14T15:12:10;0.93;;;0.55;;
36061;SDS011;22123;52.412;20.970;2023-06-14T15:14:36;2.15;;;0.80;;
36061;SDS011;22123;52.412;20.970;2023-06-14T15:17:02;0.93;;;0.70;;
36061;SDS011;22123;52.412;20.970;2023-06-14T15:19:28;1.70;;;0.88;;
36061;SDS011;22123;52.412;20.970;2023-06-14T15:21:54;0.85;;;0.70;;
36061;SDS011;22123;52.412;20.970;2023-06-14T15:26:46;0.85;;;0.52;;
36061;SDS011;22123;52.412;20.970;2023-06-14T15:29:11;0.60;;;0.50;;
36061;SDS011;22123;52.412;20.970;2023-06-14T15:31:37;0.80;;;0.80;;
36061;SDS011;22123;52.412;20.970;2023-06-14T15:34:03;3.42;;;1.00;;
36061;SDS011;22123;52.412;20.970;2023-06-14T15:36:29;0.80;;;0.80;;
36061;SDS011;22123;52.412;20.970;2023-06-14T15:38:55;1.35;;;1.00;;
36061;SDS011;22123;52.412;20.970;2023-06-14T15:41:21;1.30;;;1.20;;
36061;SDS011;22123;52.412;20.970;2023-06-14T15:43:47;0.73;;;0.63;;
36061;SDS011;22123;52.412;20.970;2023-06-14T15:46:13;0.98;;;0.80;;
36061;SDS011;22123;52.412;20.970;2023-06-14T15:48:38;0.85;;;0.80;;
36061;SDS011;22123;52.412;20.970;2023-06-14T15:51:05;1.63;;;0.82;;
36061;SDS011;22123;52.412;20.970;2023-06-14T15:55:56;0.55;;;0.47;;
36061;SDS011;22123;52.412;20.970;2023-06-14T15:58:22;1.75;;;0.60;;
36061;SDS011;22123;52.412;20.970;2023-06-14T16:00:48;1.58;;;1.00;;
36061;SDS011;22123;52.412;20.970;2023-06-14T16:03:14;3.00;;;1.02;;
36061;SDS011;22123;52.412;20.970;2023-06-14T16:05:40;1.50;;;1.33;;
36061;SDS011;22123;52.412;20.970;2023-06-14T16:10:31;1.20;;;0.82;;
36061;SDS011;22123;52.412;20.970;2023-06-14T16:12:59;1.20;;;0.90;;
36061;SDS011;22123;52.412;20.970;2023-06-14T16:17:50;1.17;;;1.00;;
36061;SDS011;22123;52.412;20.970;2023-06-14T16:22:42;0.80;;;0.80;;
36061;SDS011;22123;52.412;20.970;2023-06-14T16:25:08;2.05;;;0.90;;
36061;SDS011;22123;52.412;20.970;2023-06-14T16:27:34;3.00;;;1.10;;